sensor_id;sensor_type;location;lat;lon;timestamp;temperature;humidity
18073;DHT22;9161;47.348;9.648;2022-12-17T00:05:09;-0.10;99.90
18073;DHT22;9161;47.348;9.648;2022-12-17T00:10:10;-0.10;99.90
18073;DHT22;9161;47.348;9.648;2022-12-17T00:15:12;-0.10;99.90
18073;DHT22;9161;47.348;9.648;2022-12-17T00:20:27;-0.10;99.90
18073;DHT22;9161;47.348;9.648;2022-12-17T00:25:28;-0.20;99.90
18073;DHT22;9161;47.348;9.648;2022-12-17T00:30:42;-0.10;99.90
18073;DHT22;9161;47.348;9.648;2022-12-17T00:35:43;-0.10;99.90
18073;DHT22;9161;47.348;9.648;2022-12-17T00:40:59;-0.20;99.90
18073;DHT22;9161;47.348;9.648;2022-12-17T00:46:02;-0.20;99.90
18073;DHT22;9161;47.348;9.648;2022-12-17T00:51:03;-0.20;99.90
18073;DHT22;9161;47.348;9.648;2022-12-17T00:56:04;-0.20;99.90
18073;DHT22;9161;47.348;9.648;2022-12-17T01:01:07;-0.20;99.90
18073;DHT22;9161;47.348;9.648;2022-12-17T01:06:09;-0.20;99.90
18073;DHT22;9161;47.348;9.648;2022-12-17T01:11:10;-0.20;99.90
18073;DHT22;9161;47.348;9.648;2022-12-17T01:16:13;-0.20;99.90
18073;DHT22;9161;47.348;9.648;2022-12-17T01:21:14;-0.20;99.90
18073;DHT22;9161;47.348;9.648;2022-12-17T01:26:15;-0.20;99.90
18073;DHT22;9161;47.348;9.648;2022-12-17T01:31:17;-0.20;99.90
18073;DHT22;9161;47.348;9.648;2022-12-17T01:36:19;-0.20;99.90
18073;DHT22;9161;47.348;9.648;2022-12-17T01:41:20;-0.20;99.90
18073;DHT22;9161;47.348;9.648;2022-12-17T01:46:23;-0.20;99.90
18073;DHT22;9161;47.348;9.648;2022-12-17T01:51:24;-0.20;99.90
18073;DHT22;9161;47.348;9.648;2022-12-17T01:56:27;-0.20;99.90
18073;DHT22;9161;47.348;9.648;2022-12-17T02:01:29;-0.20;99.90
18073;DHT22;9161;47.348;9.648;2022-12-17T02:06:33;-0.20;99.90
18073;DHT22;9161;47.348;9.648;2022-12-17T02:11:42;-0.10;99.90
18073;DHT22;9161;47.348;9.648;2022-12-17T02:16:49;-0.20;99.90
18073;DHT22;9161;47.348;9.648;2022-12-17T02:21:56;-0.20;99.90
18073;DHT22;9161;47.348;9.648;2022-12-17T02:27:02;-0.20;99.90
18073;DHT22;9161;47.348;9.648;2022-12-17T02:32:05;-0.20;99.90
18073;DHT22;9161;47.348;9.648;2022-12-17T02:37:06;-0.20;99.90
18073;DHT22;9161;47.348;9.648;2022-12-17T02:42:09;-0.20;99.90
18073;DHT22;9161;47.348;9.648;2022-12-17T02:47:10;-0.20;99.90
18073;DHT22;9161;47.348;9.648;2022-12-17T02:52:15;-0.30;99.90
18073;DHT22;9161;47.348;9.648;2022-12-17T02:57:19;-0.30;99.90
18073;DHT22;9161;47.348;9.648;2022-12-17T03:02:24;-0.30;99.90
18073;DHT22;9161;47.348;9.648;2022-12-17T03:07:26;-0.30;99.90
18073;DHT22;9161;47.348;9.648;2022-12-17T03:12:28;-0.30;99.90
18073;DHT22;9161;47.348;9.648;2022-12-17T03:17:29;-0.30;99.90
18073;DHT22;9161;47.348;9.648;2022-12-17T03:22:31;-0.30;99.90
18073;DHT22;9161;47.348;9.648;2022-12-17T03:27:33;-0.30;99.90
18073;DHT22;9161;47.348;9.648;2022-12-17T03:32:35;-0.30;99.90
18073;DHT22;9161;47.348;9.648;2022-12-17T03:37:36;-0.30;99.90
18073;DHT22;9161;47.348;9.648;2022-12-17T03:42:38;-0.40;99.90
18073;DHT22;9161;47.348;9.648;2022-12-17T03:47:39;-0.30;99.90
18073;DHT22;9161;47.348;9.648;2022-12-17T03:52:40;-0.40;99.90
18073;DHT22;9161;47.348;9.648;2022-12-17T03:57:42;-0.30;99.90
18073;DHT22;9161;47.348;9.648;2022-12-17T04:02:42;-0.40;99.90
18073;DHT22;9161;47.348;9.648;2022-12-17T04:07:43;-0.40;99.90
18073;DHT22;9161;47.348;9.648;2022-12-17T04:12:46;-0.40;99.90
18073;DHT22;9161;47.348;9.648;2022-12-17T04:17:46;-0.40;99.90
18073;DHT22;9161;47.348;9.648;2022-12-17T04:22:47;-0.40;99.90
18073;DHT22;9161;47.348;9.648;2022-12-17T04:27:50;-0.30;99.90
18073;DHT22;9161;47.348;9.648;2022-12-17T04:32:50;-0.40;99.90
18073;DHT22;9161;47.348;9.648;2022-12-17T04:37:50;-0.40;99.90
18073;DHT22;9161;47.348;9.648;2022-12-17T04:43:04;-0.40;99.90
18073;DHT22;9161;47.348;9.648;2022-12-17T04:48:08;-0.30;99.90
18073;DHT22;9161;47.348;9.648;2022-12-17T04:53:09;-0.40;99.90
18073;DHT22;9161;47.348;9.648;2022-12-17T04:58:12;-0.30;99.90
18073;DHT22;9161;47.348;9.648;2022-12-17T05:03:15;-0.30;99.90
18073;DHT22;9161;47.348;9.648;2022-12-17T05:08:17;-0.30;99.90
18073;DHT22;9161;47.348;9.648;2022-12-17T05:13:24;-0.30;99.90
18073;DHT22;9161;47.348;9.648;2022-12-17T05:18:24;-0.40;99.90
18073;DHT22;9161;47.348;9.648;2022-12-17T05:23:25;-0.40;99.90
18073;DHT22;9161;47.348;9.648;2022-12-17T05:28:29;-0.40;99.90
18073;DHT22;9161;47.348;9.648;2022-12-17T05:33:30;-0.40;99.90
18073;DHT22;9161;47.348;9.648;2022-12-17T05:38:31;-0.40;99.90
18073;DHT22;9161;47.348;9.648;2022-12-17T05:43:33;-0.40;99.90
18073;DHT22;9161;47.348;9.648;2022-12-17T05:48:35;-0.40;99.90
18073;DHT22;9161;47.348;9.648;2022-12-17T05:53:36;-0.30;99.90
18073;DHT22;9161;47.348;9.648;2022-12-17T05:58:38;-0.30;99.90
18073;DHT22;9161;47.348;9.648;2022-12-17T06:03:39;-0.30;99.90
18073;DHT22;9161;47.348;9.648;2022-12-17T06:08:41;-0.30;99.90
18073;DHT22;9161;47.348;9.648;2022-12-17T06:13:45;-0.30;99.90
18073;DHT22;9161;47.348;9.648;2022-12-17T06:18:46;-0.30;99.90
18073;DHT22;9161;47.348;9.648;2022-12-17T06:23:47;-0.30;99.90
18073;DHT22;9161;47.348;9.648;2022-12-17T06:28:50;-0.30;99.90
18073;DHT22;9161;47.348;9.648;2022-12-17T06:33:51;-0.20;99.90
18073;DHT22;9161;47.348;9.648;2022-12-17T06:38:51;-0.30;99.90
18073;DHT22;9161;47.348;9.648;2022-12-17T06:43:57;-0.30;99.90
18073;DHT22;9161;47.348;9.648;2022-12-17T06:48:58;-0.30;99.90
18073;DHT22;9161;47.348;9.648;2022-12-17T06:54:07;-0.30;99.90
18073;DHT22;9161;47.348;9.648;2022-12-17T06:59:09;-0.30;99.90
18073;DHT22;9161;47.348;9.648;2022-12-17T07:04:10;-0.30;99.90
18073;DHT22;9161;47.348;9.648;2022-12-17T07:09:12;-0.20;99.90
18073;DHT22;9161;47.348;9.648;2022-12-17T07:14:16;-0.30;99.90
18073;DHT22;9161;47.348;9.648;2022-12-17T07:19:17;-0.30;99.90
18073;DHT22;9161;47.348;9.648;2022-12-17T07:24:18;-0.30;99.90
18073;DHT22;9161;47.348;9.648;2022-12-17T07:29:23;-0.30;99.90
18073;DHT22;9161;47.348;9.648;2022-12-17T07:34:24;-0.20;99.90
18073;DHT22;9161;47.348;9.648;2022-12-17T07:39:25;-0.20;99.90
18073;DHT22;9161;47.348;9.648;2022-12-17T07:44:28;-0.20;99.90
18073;DHT22;9161;47.348;9.648;2022-12-17T07:49:29;-0.10;99.90
18073;DHT22;9161;47.348;9.648;2022-12-17T07:54:31;-0.10;99.90
18073;DHT22;9161;47.348;9.648;2022-12-17T07:59:33;0.00;99.90
18073;DHT22;9161;47.348;9.648;2022-12-17T08:04:34;0.10;99.90
18073;DHT22;9161;47.348;9.648;2022-12-17T08:09:35;0.10;99.90
18073;DHT22;9161;47.348;9.648;2022-12-17T08:14:38;0.30;99.90
18073;DHT22;9161;47.348;9.648;2022-12-17T08:19:38;0.30;99.90
18073;DHT22;9161;47.348;9.648;2022-12-17T08:24:39;0.40;99.90
18073;DHT22;9161;47.348;9.648;2022-12-17T08:29:42;0.40;99.90
18073;DHT22;9161;47.348;9.648;2022-12-17T08:34:42;0.50;99.90
18073;DHT22;9161;47.348;9.648;2022-12-17T08:39:43;0.60;99.90
18073;DHT22;9161;47.348;9.648;2022-12-17T08:44:46;0.60;99.90
18073;DHT22;9161;47.348;9.648;2022-12-17T08:49:47;0.80;99.90
18073;DHT22;9161;47.348;9.648;2022-12-17T08:54:48;0.90;99.90
18073;DHT22;9161;47.348;9.648;2022-12-17T08:59:50;1.00;99.90
18073;DHT22;9161;47.348;9.648;2022-12-17T09:04:51;1.20;99.90
18073;DHT22;9161;47.348;9.648;2022-12-17T09:09:51;1.40;99.90
18073;DHT22;9161;47.348;9.648;2022-12-17T09:14:54;1.40;99.90
18073;DHT22;9161;47.348;9.648;2022-12-17T09:19:55;1.60;99.90
18073;DHT22;9161;47.348;9.648;2022-12-17T09:24:56;1.70;99.90
18073;DHT22;9161;47.348;9.648;2022-12-17T09:29:58;1.80;99.90
18073;DHT22;9161;47.348;9.648;2022-12-17T09:34:59;1.90;99.90
18073;DHT22;9161;47.348;9.648;2022-12-17T09:40:00;2.10;99.90
18073;DHT22;9161;47.348;9.648;2022-12-17T09:45:07;2.10;99.90
18073;DHT22;9161;47.348;9.648;2022-12-17T09:50:12;2.20;99.90
18073;DHT22;9161;47.348;9.648;2022-12-17T09:55:16;2.10;99.90
18073;DHT22;9161;47.348;9.648;2022-12-17T10:00:21;2.00;99.90
18073;DHT22;9161;47.348;9.648;2022-12-17T10:05:24;1.90;99.90
18073;DHT22;9161;47.348;9.648;2022-12-17T10:10:29;2.00;99.90
18073;DHT22;9161;47.348;9.648;2022-12-17T10:15:33;2.20;99.90
18073;DHT22;9161;47.348;9.648;2022-12-17T10:20:37;2.30;99.90
18073;DHT22;9161;47.348;9.648;2022-12-17T10:25:49;2.30;99.90
18073;DHT22;9161;47.348;9.648;2022-12-17T10:30:52;2.40;99.90
18073;DHT22;9161;47.348;9.648;2022-12-17T10:35:54;2.40;99.90
18073;DHT22;9161;47.348;9.648;2022-12-17T10:40:56;2.20;99.90
18073;DHT22;9161;47.348;9.648;2022-12-17T10:46:07;2.40;99.90
18073;DHT22;9161;47.348;9.648;2022-12-17T10:51:23;2.30;99.90
18073;DHT22;9161;47.348;9.648;2022-12-17T10:56:26;2.50;99.90
18073;DHT22;9161;47.348;9.648;2022-12-17T11:01:29;2.50;99.90
18073;DHT22;9161;47.348;9.648;2022-12-17T11:06:33;2.40;99.90
18073;DHT22;9161;47.348;9.648;2022-12-17T11:11:35;2.40;99.90
18073;DHT22;9161;47.348;9.648;2022-12-17T11:16:42;2.40;99.90
18073;DHT22;9161;47.348;9.648;2022-12-17T11:21:47;2.40;99.90
18073;DHT22;9161;47.348;9.648;2022-12-17T11:26:52;2.50;99.90
18073;DHT22;9161;47.348;9.648;2022-12-17T11:37:33;2.70;99.90
18073;DHT22;9161;47.348;9.648;2022-12-17T11:42:41;2.80;99.90
18073;DHT22;9161;47.348;9.648;2022-12-17T11:47:48;2.90;99.90
18073;DHT22;9161;47.348;9.648;2022-12-17T11:53:09;2.60;99.90
18073;DHT22;9161;47.348;9.648;2022-12-17T11:58:19;2.70;99.90
18073;DHT22;9161;47.348;9.648;2022-12-17T12:03:28;2.70;99.90
18073;DHT22;9161;47.348;9.648;2022-12-17T12:08:34;2.70;99.90
18073;DHT22;9161;47.348;9.648;2022-12-17T12:13:41;2.50;99.90
18073;DHT22;9161;47.348;9.648;2022-12-17T12:18:53;2.60;99.90
18073;DHT22;9161;47.348;9.648;2022-12-17T12:24:07;2.70;99.90
18073;DHT22;9161;47.348;9.648;2022-12-17T12:29:23;2.60;99.90
18073;DHT22;9161;47.348;9.648;2022-12-17T12:34:33;2.60;99.90
18073;DHT22;9161;47.348;9.648;2022-12-17T12:39:38;2.50;99.90
18073;DHT22;9161;47.348;9.648;2022-12-17T12:44:45;2.60;99.90
18073;DHT22;9161;47.348;9.648;2022-12-17T12:49:54;2.70;99.90
18073;DHT22;9161;47.348;9.648;2022-12-17T12:54:57;2.70;99.90
18073;DHT22;9161;47.348;9.648;2022-12-17T12:59:59;2.90;99.90
18073;DHT22;9161;47.348;9.648;2022-12-17T13:05:01;2.70;99.90
18073;DHT22;9161;47.348;9.648;2022-12-17T13:10:20;2.50;99.90
18073;DHT22;9161;47.348;9.648;2022-12-17T13:15:18;2.40;99.90
18073;DHT22;9161;47.348;9.648;2022-12-17T13:20:23;2.30;99.90
18073;DHT22;9161;47.348;9.648;2022-12-17T13:25:16;2.10;99.90
18073;DHT22;9161;47.348;9.648;2022-12-17T13:30:21;2.10;99.90
18073;DHT22;9161;47.348;9.648;2022-12-17T13:35:20;2.80;99.90
18073;DHT22;9161;47.348;9.648;2022-12-17T13:40:20;4.80;99.90
18073;DHT22;9161;47.348;9.648;2022-12-17T13:45:06;5.40;99.90
18073;DHT22;9161;47.348;9.648;2022-12-17T13:49:51;5.40;99.90
18073;DHT22;9161;47.348;9.648;2022-12-17T13:55:09;4.80;99.90
18073;DHT22;9161;47.348;9.648;2022-12-17T13:59:57;4.00;99.90
18073;DHT22;9161;47.348;9.648;2022-12-17T14:04:41;3.60;99.90
18073;DHT22;9161;47.348;9.648;2022-12-17T14:09:31;3.20;99.90
18073;DHT22;9161;47.348;9.648;2022-12-17T14:14:21;2.60;99.90
18073;DHT22;9161;47.348;9.648;2022-12-17T14:19:09;2.20;99.90
18073;DHT22;9161;47.348;9.648;2022-12-17T14:23:56;1.70;99.90
18073;DHT22;9161;47.348;9.648;2022-12-17T14:28:45;1.50;99.90
18073;DHT22;9161;47.348;9.648;2022-12-17T14:33:34;1.50;99.90
18073;DHT22;9161;47.348;9.648;2022-12-17T14:38:19;1.30;99.90
18073;DHT22;9161;47.348;9.648;2022-12-17T14:43:22;1.00;99.90
18073;DHT22;9161;47.348;9.648;2022-12-17T14:48:14;0.80;99.90
18073;DHT22;9161;47.348;9.648;2022-12-17T14:53:00;0.70;99.90
18073;DHT22;9161;47.348;9.648;2022-12-17T14:57:44;0.60;99.90
18073;DHT22;9161;47.348;9.648;2022-12-17T15:02:28;0.30;99.90
18073;DHT22;9161;47.348;9.648;2022-12-17T15:07:21;0.10;99.90
18073;DHT22;9161;47.348;9.648;2022-12-17T15:12:07;0.10;99.90
18073;DHT22;9161;47.348;9.648;2022-12-17T15:16:51;0.00;99.90
18073;DHT22;9161;47.348;9.648;2022-12-17T15:21:36;0.00;99.90
18073;DHT22;9161;47.348;9.648;2022-12-17T15:26:22;-0.10;99.90
18073;DHT22;9161;47.348;9.648;2022-12-17T15:31:10;-0.10;99.90
18073;DHT22;9161;47.348;9.648;2022-12-17T15:35:56;-0.10;99.90
18073;DHT22;9161;47.348;9.648;2022-12-17T15:40:40;-0.10;99.90
18073;DHT22;9161;47.348;9.648;2022-12-17T15:45:24;-0.10;99.90
18073;DHT22;9161;47.348;9.648;2022-12-17T15:50:10;0.00;99.90
18073;DHT22;9161;47.348;9.648;2022-12-17T15:54:55;0.00;99.90
18073;DHT22;9161;47.348;9.648;2022-12-17T15:59:39;0.00;99.90
18073;DHT22;9161;47.348;9.648;2022-12-17T16:04:23;-0.10;99.90
18073;DHT22;9161;47.348;9.648;2022-12-17T16:09:08;-0.10;99.90
18073;DHT22;9161;47.348;9.648;2022-12-17T16:13:53;-0.10;99.90
18073;DHT22;9161;47.348;9.648;2022-12-17T16:18:37;-0.10;99.90
18073;DHT22;9161;47.348;9.648;2022-12-17T16:23:21;-0.10;99.90
18073;DHT22;9161;47.348;9.648;2022-12-17T16:28:08;0.00;99.90
18073;DHT22;9161;47.348;9.648;2022-12-17T16:32:51;0.00;99.90
18073;DHT22;9161;47.348;9.648;2022-12-17T16:37:35;-0.10;99.90
18073;DHT22;9161;47.348;9.648;2022-12-17T16:42:19;-0.10;99.90
18073;DHT22;9161;47.348;9.648;2022-12-17T16:47:05;-0.10;99.90
18073;DHT22;9161;47.348;9.648;2022-12-17T16:51:51;-0.10;99.90
18073;DHT22;9161;47.348;9.648;2022-12-17T16:56:36;-0.10;99.90
18073;DHT22;9161;47.348;9.648;2022-12-17T17:01:24;-0.10;99.90
18073;DHT22;9161;47.348;9.648;2022-12-17T17:06:10;-0.20;99.90
18073;DHT22;9161;47.348;9.648;2022-12-17T17:10:55;-0.10;99.90
18073;DHT22;9161;47.348;9.648;2022-12-17T17:15:38;-0.20;99.90
18073;DHT22;9161;47.348;9.648;2022-12-17T17:20:22;-0.30;99.90
18073;DHT22;9161;47.348;9.648;2022-12-17T17:25:08;-0.50;99.90
18073;DHT22;9161;47.348;9.648;2022-12-17T17:29:51;-0.70;99.90
18073;DHT22;9161;47.348;9.648;2022-12-17T17:34:42;-0.80;99.90
18073;DHT22;9161;47.348;9.648;2022-12-17T17:39:25;-1.10;99.90
18073;DHT22;9161;47.348;9.648;2022-12-17T17:44:12;-1.30;99.90
18073;DHT22;9161;47.348;9.648;2022-12-17T17:48:57;-1.40;99.90
18073;DHT22;9161;47.348;9.648;2022-12-17T17:53:41;-1.50;99.90
18073;DHT22;9161;47.348;9.648;2022-12-17T17:58:25;-1.70;99.90
18073;DHT22;9161;47.348;9.648;2022-12-17T18:03:11;-1.90;99.90
18073;DHT22;9161;47.348;9.648;2022-12-17T18:07:55;-2.00;99.90
18073;DHT22;9161;47.348;9.648;2022-12-17T18:12:38;-2.10;99.90
18073;DHT22;9161;47.348;9.648;2022-12-17T18:18:00;-2.30;99.90
18073;DHT22;9161;47.348;9.648;2022-12-17T18:22:46;-2.20;99.90
18073;DHT22;9161;47.348;9.648;2022-12-17T18:27:31;-2.40;99.90
18073;DHT22;9161;47.348;9.648;2022-12-17T18:32:15;-2.50;99.90
18073;DHT22;9161;47.348;9.648;2022-12-17T18:36:59;-2.60;99.90
18073;DHT22;9161;47.348;9.648;2022-12-17T18:41:45;-2.50;99.90
18073;DHT22;9161;47.348;9.648;2022-12-17T18:47:01;-2.60;99.90
18073;DHT22;9161;47.348;9.648;2022-12-17T18:51:47;-2.70;99.90
18073;DHT22;9161;47.348;9.648;2022-12-17T18:56:33;-2.60;99.90
18073;DHT22;9161;47.348;9.648;2022-12-17T19:01:40;-2.60;99.90
18073;DHT22;9161;47.348;9.648;2022-12-17T19:06:24;-2.60;99.90
18073;DHT22;9161;47.348;9.648;2022-12-17T19:11:10;-2.60;99.90
18073;DHT22;9161;47.348;9.648;2022-12-17T19:15:54;-2.80;99.90
18073;DHT22;9161;47.348;9.648;2022-12-17T19:20:40;-2.90;99.90
18073;DHT22;9161;47.348;9.648;2022-12-17T19:25:24;-3.00;99.90
18073;DHT22;9161;47.348;9.648;2022-12-17T19:30:09;-3.20;99.90
18073;DHT22;9161;47.348;9.648;2022-12-17T19:34:53;-3.40;99.90
18073;DHT22;9161;47.348;9.648;2022-12-17T19:39:39;-3.50;99.90
18073;DHT22;9161;47.348;9.648;2022-12-17T19:44:24;-3.60;99.90
18073;DHT22;9161;47.348;9.648;2022-12-17T19:49:10;-3.50;99.90
18073;DHT22;9161;47.348;9.648;2022-12-17T19:53:59;-3.60;99.90
18073;DHT22;9161;47.348;9.648;2022-12-17T19:58:59;-3.70;99.90
18073;DHT22;9161;47.348;9.648;2022-12-17T20:03:45;-3.80;99.90
18073;DHT22;9161;47.348;9.648;2022-12-17T20:08:29;-4.00;99.90
18073;DHT22;9161;47.348;9.648;2022-12-17T20:13:14;-4.20;99.90
18073;DHT22;9161;47.348;9.648;2022-12-17T20:17:59;-4.20;99.90
18073;DHT22;9161;47.348;9.648;2022-12-17T20:22:43;-3.80;99.90
18073;DHT22;9161;47.348;9.648;2022-12-17T20:27:28;-3.80;99.90
18073;DHT22;9161;47.348;9.648;2022-12-17T20:32:13;-3.80;99.90
18073;DHT22;9161;47.348;9.648;2022-12-17T20:37:02;-3.90;99.90
18073;DHT22;9161;47.348;9.648;2022-12-17T20:41:46;-4.10;99.90
18073;DHT22;9161;47.348;9.648;2022-12-17T20:46:33;-4.20;99.90
18073;DHT22;9161;47.348;9.648;2022-12-17T20:51:23;-3.90;99.90
18073;DHT22;9161;47.348;9.648;2022-12-17T20:56:10;-4.10;99.90
18073;DHT22;9161;47.348;9.648;2022-12-17T21:01:03;-4.00;99.90
18073;DHT22;9161;47.348;9.648;2022-12-17T21:05:47;-4.20;99.90
18073;DHT22;9161;47.348;9.648;2022-12-17T21:10:30;-4.10;99.90
18073;DHT22;9161;47.348;9.648;2022-12-17T21:15:18;-4.20;99.90
18073;DHT22;9161;47.348;9.648;2022-12-17T21:20:03;-4.40;99.90
18073;DHT22;9161;47.348;9.648;2022-12-17T21:24:52;-4.40;99.90
18073;DHT22;9161;47.348;9.648;2022-12-17T21:29:37;-4.50;99.90
18073;DHT22;9161;47.348;9.648;2022-12-17T21:34:23;-4.40;99.90
18073;DHT22;9161;47.348;9.648;2022-12-17T21:39:13;-4.30;99.90
18073;DHT22;9161;47.348;9.648;2022-12-17T21:43:58;-4.50;99.90
18073;DHT22;9161;47.348;9.648;2022-12-17T21:48:43;-4.60;99.90
18073;DHT22;9161;47.348;9.648;2022-12-17T21:53:29;-4.70;99.90
18073;DHT22;9161;47.348;9.648;2022-12-17T21:58:13;-4.90;99.90
18073;DHT22;9161;47.348;9.648;2022-12-17T22:02:57;-5.00;99.90
18073;DHT22;9161;47.348;9.648;2022-12-17T22:07:41;-5.10;99.90
18073;DHT22;9161;47.348;9.648;2022-12-17T22:12:28;-5.10;99.90
18073;DHT22;9161;47.348;9.648;2022-12-17T22:17:28;-5.10;99.90
18073;DHT22;9161;47.348;9.648;2022-12-17T22:22:12;-5.00;99.90
18073;DHT22;9161;47.348;9.648;2022-12-17T22:26:56;-5.10;99.90
18073;DHT22;9161;47.348;9.648;2022-12-17T22:31:42;-5.00;99.90
18073;DHT22;9161;47.348;9.648;2022-12-17T22:36:45;-4.70;99.90
18073;DHT22;9161;47.348;9.648;2022-12-17T22:41:50;-4.50;99.90
18073;DHT22;9161;47.348;9.648;2022-12-17T22:47:12;-4.50;99.90
18073;DHT22;9161;47.348;9.648;2022-12-17T22:51:56;-4.70;99.90
18073;DHT22;9161;47.348;9.648;2022-12-17T22:56:42;-4.80;99.90
18073;DHT22;9161;47.348;9.648;2022-12-17T23:06:44;-4.20;99.90
18073;DHT22;9161;47.348;9.648;2022-12-17T23:11:28;-4.30;99.90
18073;DHT22;9161;47.348;9.648;2022-12-17T23:16:13;-4.60;99.90
18073;DHT22;9161;47.348;9.648;2022-12-17T23:21:05;-4.50;99.90
18073;DHT22;9161;47.348;9.648;2022-12-17T23:25:50;-4.60;99.90
18073;DHT22;9161;47.348;9.648;2022-12-17T23:30:35;-4.50;99.90
18073;DHT22;9161;47.348;9.648;2022-12-17T23:35:19;-4.60;99.90
18073;DHT22;9161;47.348;9.648;2022-12-17T23:40:04;-4.60;99.90
18073;DHT22;9161;47.348;9.648;2022-12-17T23:44:49;-4.70;99.90
18073;DHT22;9161;47.348;9.648;2022-12-17T23:49:32;-4.70;99.90
18073;DHT22;9161;47.348;9.648;2022-12-17T23:54:16;-4.70;99.90
18073;DHT22;9161;47.348;9.648;2022-12-17T23:59:01;-4.40;99.90
